Terminal Aerodrome Forecast
Issued by NWS

Home | Current Version | Previous Version | Text Only | Print | Product List | Glossary On
Versions: 1 2 3 4 5 6 7 8 9 10 11 12 13 14 15 16 17 18
919
FTUS44 KCRP 031633 AAA
TAFLRD
TAF AMD
KLRD 031633Z 0317/0412 02008KT 6SM -RA BR OVC005
      TEMPO 0317/0320 4SM SHRA BR BKN003 OVC005
     FM032000 04007KT P6SM VCTS BKN010CB OVC020
      TEMPO 0320/0324 VRB15G30KT 3SM +TSRA BR OVC025CB
     FM040300 01007KT 6SM -SHRA BR BKN009 OVC015=

USA.gov is the U.S. government's official web portal to all federal, state and local government web resources and services.